createdAt,value
2023-04-15T17:47:10.528Z,12.70
2023-04-15T17:49:38.027Z,12.70
2023-04-15T17:52:05.640Z,12.60
2023-04-15T17:54:33.067Z,12.60
2023-04-15T17:57:01.506Z,12.60
2023-04-15T17:59:29.383Z,12.40
2023-04-15T18:01:59.150Z,12.30
2023-04-15T18:04:26.967Z,12.40
2023-04-15T18:06:54.655Z,12.20
2023-04-15T18:09:22.002Z,12.10
2023-04-15T18:11:49.412Z,12.30
2023-04-15T18:14:30.725Z,12.70
2023-04-15T18:17:01.217Z,12.80
2023-04-15T18:19:28.778Z,12.50
2023-04-15T18:21:56.075Z,12.50
2023-04-15T18:24:23.350Z,12.60
2023-04-15T18:26:50.926Z,12.50
2023-04-15T18:29:18.769Z,12.30
2023-04-15T18:31:46.027Z,12.30
2023-04-15T18:34:13.571Z,12.00
2023-04-15T18:36:41.291Z,12.00
2023-04-15T18:39:09.304Z,12.10
2023-04-15T18:41:36.863Z,12.20
2023-04-15T18:44:04.086Z,12.30
2023-04-15T18:46:31.574Z,12.40
2023-04-15T18:48:59.025Z,12.30
2023-04-15T18:51:26.176Z,12.10
2023-04-15T18:53:54.130Z,12.10
2023-04-15T18:56:21.554Z,12.00
2023-04-15T18:59:09.957Z,12.00
2023-04-15T19:01:36.233Z,12.10
2023-04-15T19:04:04.040Z,12.10
2023-04-15T19:06:32.151Z,12.10
2023-04-15T19:08:59.509Z,12.20
2023-04-15T19:11:26.719Z,12.10
2023-04-15T19:13:54.587Z,12.10
2023-04-15T19:16:22.166Z,12.10
2023-04-15T19:18:49.662Z,12.20
2023-04-15T19:21:17.027Z,12.10
2023-04-15T19:23:44.318Z,12.10
2023-04-15T19:26:12.087Z,12.00
2023-04-15T19:28:39.575Z,12.20
2023-04-15T19:31:07.240Z,12.10
2023-04-15T19:33:34.632Z,12.10
2023-04-15T19:36:04.403Z,12.10
2023-04-15T19:38:32.509Z,12.20
2023-04-15T19:41:00.009Z,12.10
2023-04-15T19:43:27.558Z,11.90
2023-04-15T19:45:55.140Z,11.90
2023-04-15T19:48:24.698Z,12.00
2023-04-15T19:50:52.194Z,12.10
2023-04-15T19:53:19.509Z,12.00
2023-04-15T19:55:48.500Z,12.00
2023-04-15T19:58:15.796Z,11.90
2023-04-15T20:00:43.357Z,11.90
2023-04-15T20:03:11.111Z,11.90
2023-04-15T20:05:38.436Z,11.90
2023-04-15T20:08:05.814Z,11.80
2023-04-15T20:10:33.098Z,11.70
2023-04-15T20:13:01.145Z,11.60
2023-04-15T20:15:28.647Z,11.80
2023-04-15T20:17:55.860Z,11.80
2023-04-15T20:20:23.266Z,11.70
2023-04-15T20:22:50.841Z,11.70
2023-04-15T20:25:18.138Z,11.60
2023-04-15T20:27:45.651Z,11.70
2023-04-15T20:30:12.949Z,11.70
2023-04-15T20:32:40.323Z,11.80
2023-04-15T20:35:08.093Z,11.90
2023-04-15T20:37:37.149Z,11.70
2023-04-15T20:40:05.365Z,11.70
2023-04-15T20:42:34.643Z,11.80
2023-04-15T20:45:02.366Z,11.80
2023-04-15T20:47:30.223Z,12.00
2023-04-15T20:49:57.619Z,12.20
2023-04-15T20:52:24.901Z,12.10
2023-04-15T20:54:52.277Z,12.20
2023-04-15T20:57:20.646Z,12.20
2023-04-15T20:59:47.855Z,12.00
2023-04-15T21:02:15.184Z,11.90
2023-04-15T21:04:42.530Z,11.90
2023-04-15T21:07:10.563Z,12.00
2023-04-15T21:09:41.482Z,12.00
2023-04-15T21:12:09.508Z,11.70
2023-04-15T21:14:37.817Z,11.80
2023-04-15T21:17:10.907Z,12.00
2023-04-15T21:19:39.121Z,11.90
2023-04-15T21:22:06.797Z,11.80
2023-04-15T21:24:34.515Z,11.80
2023-04-15T21:27:02.145Z,11.60
2023-04-15T21:29:29.824Z,11.60
2023-04-15T21:31:57.325Z,11.70
2023-04-15T21:34:25.069Z,11.70
2023-04-15T21:36:52.397Z,11.80
2023-04-15T21:39:19.655Z,11.70
2023-04-15T21:41:47.074Z,11.70
2023-04-15T21:44:15.103Z,11.70
2023-04-15T21:46:45.643Z,11.90
2023-04-15T21:49:14.084Z,11.90
2023-04-15T21:51:41.494Z,11.90
2023-04-15T21:54:08.876Z,11.90
2023-04-15T21:56:38.037Z,11.90
2023-04-15T21:59:05.638Z,11.90
2023-04-15T22:01:33.144Z,11.90
2023-04-15T22:04:00.900Z,11.90
2023-04-15T22:06:28.919Z,11.90
2023-04-15T22:08:57.825Z,12.00
2023-04-15T22:11:30.557Z,11.90
2023-04-15T22:13:59.164Z,11.90
2023-04-15T22:16:27.157Z,11.90
2023-04-15T22:18:55.108Z,11.90
2023-04-15T22:21:23.027Z,11.90
2023-04-15T22:23:51.903Z,11.90
2023-04-15T22:26:19.248Z,11.80
2023-04-15T22:28:46.537Z,11.80
2023-04-15T22:31:15.140Z,11.80
2023-04-15T22:33:42.650Z,11.70
2023-04-15T22:36:10.072Z,11.70
2023-04-15T22:38:37.634Z,11.70
2023-04-15T22:41:05.006Z,11.70
2023-04-15T22:43:32.337Z,11.60
2023-04-15T22:46:00.982Z,11.70
2023-04-15T22:48:28.500Z,11.80
2023-04-15T22:50:56.184Z,11.80
2023-04-15T22:53:23.601Z,11.70
2023-04-15T22:55:51.883Z,11.60
2023-04-15T22:58:19.239Z,11.60
2023-04-15T23:00:46.551Z,11.60
2023-04-15T23:03:13.998Z,11.60
2023-04-15T23:05:42.238Z,11.60
2023-04-15T23:08:09.559Z,11.70
2023-04-15T23:10:38.579Z,11.70
2023-04-15T23:13:06.021Z,11.60
2023-04-15T23:15:33.279Z,11.70
2023-04-15T23:18:02.375Z,11.70
2023-04-15T23:20:29.866Z,11.70
2023-04-15T23:22:57.248Z,11.70
2023-04-15T23:25:24.549Z,11.70
2023-04-15T23:27:51.894Z,11.70
2023-04-15T23:30:19.261Z,11.60
2023-04-15T23:32:46.688Z,11.60
2023-04-15T23:35:14.040Z,11.70
2023-04-15T23:37:41.367Z,11.80
2023-04-15T23:40:09.256Z,11.80
2023-04-15T23:42:36.481Z,11.90
2023-04-15T23:45:04.105Z,11.90
2023-04-15T23:47:31.503Z,11.80
2023-04-15T23:49:58.828Z,11.70
2023-04-15T23:52:26.169Z,11.80
2023-04-15T23:54:53.723Z,11.70
2023-04-15T23:57:21.160Z,11.80
2023-04-15T23:59:48.649Z,11.70
